createdAt,value
2017-09-05T00:02:18.735Z,5.60
2017-09-05T00:04:47.080Z,5.30
2017-09-05T00:07:18.704Z,4.90
2017-09-05T00:09:47.001Z,4.93
2017-09-05T00:12:21.351Z,5.30
2017-09-05T00:14:55.351Z,5.00
2017-09-05T00:17:30.437Z,6.73
2017-09-05T00:20:01.288Z,4.90
2017-09-05T00:22:31.469Z,5.10
2017-09-05T00:25:03.043Z,6.30
2017-09-05T00:27:31.439Z,5.70
2017-09-05T00:29:59.790Z,6.50
2017-09-05T00:32:28.550Z,4.77
2017-09-05T00:34:56.872Z,4.40
2017-09-05T00:37:25.389Z,4.47
2017-09-05T00:39:54.267Z,4.40
2017-09-05T00:42:22.745Z,3.83
2017-09-05T00:44:51.920Z,4.37
2017-09-05T00:47:20.577Z,4.20
2017-09-05T00:49:49.085Z,3.57
2017-09-05T00:52:17.628Z,4.47
2017-09-05T00:54:46.307Z,4.57
2017-09-05T00:57:14.836Z,4.40
2017-09-05T00:59:43.213Z,4.60
2017-09-05T01:02:11.524Z,3.97
2017-09-05T01:04:40.416Z,4.07
2017-09-05T01:07:08.729Z,4.40
2017-09-05T01:09:37.038Z,3.93
2017-09-05T01:12:05.354Z,4.17
2017-09-05T01:14:33.662Z,4.20
2017-09-05T01:17:02.100Z,3.77
2017-09-05T01:19:30.437Z,3.80
2017-09-05T01:21:58.944Z,3.70
2017-09-05T01:24:27.310Z,3.23
2017-09-05T01:26:56.253Z,4.33
2017-09-05T01:29:24.609Z,3.57
2017-09-05T01:31:54.076Z,3.90
2017-09-05T01:34:22.462Z,3.50
2017-09-05T01:36:50.908Z,3.20
2017-09-05T01:39:19.955Z,3.40
2017-09-05T01:41:48.292Z,3.10
2017-09-05T01:44:16.599Z,3.40
2017-09-05T01:46:45.082Z,3.23
2017-09-05T01:49:13.412Z,2.90
2017-09-05T01:51:42.415Z,4.13
2017-09-05T01:54:11.033Z,4.10
2017-09-05T01:56:39.684Z,3.80
2017-09-05T01:59:08.029Z,3.53
2017-09-05T02:01:36.504Z,4.43
2017-09-05T02:04:04.795Z,3.57
2017-09-05T02:06:33.302Z,4.20
2017-09-05T02:09:01.906Z,3.60
2017-09-05T02:11:31.204Z,3.80
2017-09-05T02:14:00.197Z,3.70
2017-09-05T02:16:28.502Z,3.90
2017-09-05T02:18:56.853Z,3.50
2017-09-05T02:21:25.456Z,3.40
2017-09-05T02:26:29.536Z,3.30
2017-09-05T02:28:57.841Z,3.60
2017-09-05T02:31:26.740Z,3.47
2017-09-05T02:33:55.387Z,3.23
2017-09-05T02:36:24.140Z,4.37
2017-09-05T02:38:53.464Z,3.80
2017-09-05T02:41:21.946Z,5.43
2017-09-05T02:43:50.315Z,3.60
2017-09-05T02:46:18.615Z,4.57
2017-09-05T02:48:46.993Z,4.53
2017-09-05T02:51:15.332Z,5.53
2017-09-05T02:53:44.324Z,4.60
2017-09-05T02:56:12.854Z,4.37
2017-09-05T02:58:42.640Z,4.60
2017-09-05T03:01:11.230Z,4.17
2017-09-05T03:03:39.597Z,3.40
2017-09-05T03:06:07.935Z,3.33
2017-09-05T03:08:36.303Z,3.90
2017-09-05T03:11:04.825Z,2.60
2017-09-05T03:13:33.356Z,3.60
2017-09-05T03:16:01.696Z,3.30
2017-09-05T03:18:30.056Z,3.33
2017-09-05T03:20:58.681Z,3.70
2017-09-05T03:23:26.990Z,3.70
2017-09-05T03:25:55.718Z,4.37
2017-09-05T03:28:24.888Z,3.40
2017-09-05T03:30:54.645Z,3.63
2017-09-05T03:33:23.307Z,4.13
2017-09-05T03:35:51.659Z,4.40
2017-09-05T03:38:20.211Z,4.30
2017-09-05T03:40:48.512Z,4.30
2017-09-05T03:43:16.852Z,3.93
2017-09-05T03:45:45.151Z,4.77
2017-09-05T03:48:13.959Z,4.30
2017-09-05T03:50:42.582Z,3.50
2017-09-05T03:53:11.311Z,3.10
2017-09-05T03:55:39.625Z,3.03
2017-09-05T03:58:07.926Z,3.03
2017-09-05T04:00:36.435Z,3.83
2017-09-05T04:03:04.748Z,3.20
2017-09-05T04:05:33.364Z,2.83
2017-09-05T04:08:01.700Z,3.30
2017-09-05T04:10:30.336Z,3.47
2017-09-05T04:12:58.640Z,3.47
2017-09-05T04:15:26.972Z,3.53
2017-09-05T04:17:55.549Z,3.73
2017-09-05T04:20:24.729Z,2.83
2017-09-05T04:22:53.741Z,3.00
2017-09-05T04:25:22.485Z,3.33
2017-09-05T04:27:50.967Z,3.37
2017-09-05T04:30:19.446Z,3.00
2017-09-05T04:32:47.754Z,2.77
2017-09-05T04:35:16.064Z,4.00
2017-09-05T04:37:44.439Z,3.20
2017-09-05T04:40:12.742Z,3.57
2017-09-05T04:42:41.268Z,2.60
2017-09-05T04:45:09.595Z,3.30
2017-09-05T04:47:37.897Z,3.47
2017-09-05T04:50:06.592Z,3.67
2017-09-05T04:52:35.709Z,3.70
2017-09-05T04:55:04.352Z,4.40
2017-09-05T04:57:33.298Z,3.40
2017-09-05T05:00:02.793Z,3.30
2017-09-05T05:02:31.363Z,3.20
2017-09-05T05:04:59.914Z,3.60
2017-09-05T05:07:28.225Z,3.80
2017-09-05T05:09:56.566Z,3.87
2017-09-05T05:12:25.324Z,3.87
2017-09-05T05:14:53.676Z,3.77
2017-09-05T05:17:21.993Z,3.80
2017-09-05T05:19:50.862Z,3.40
2017-09-05T05:22:19.168Z,3.60
2017-09-05T05:24:47.474Z,3.70
2017-09-05T05:27:15.787Z,2.90
2017-09-05T05:29:44.115Z,3.63
2017-09-05T05:32:12.429Z,3.90
2017-09-05T05:34:41.580Z,2.83
2017-09-05T05:37:09.890Z,3.53
2017-09-05T05:39:38.209Z,3.23
2017-09-05T05:42:06.508Z,3.50
2017-09-05T05:44:35.276Z,3.07
2017-09-05T05:47:04.517Z,3.40
2017-09-05T05:49:33.221Z,2.80
2017-09-05T05:52:01.722Z,2.93
2017-09-05T05:54:30.248Z,3.90
2017-09-05T05:56:58.755Z,3.90
2017-09-05T05:59:27.077Z,3.60
2017-09-05T06:01:55.587Z,3.53
2017-09-05T06:04:23.961Z,3.80
2017-09-05T06:06:52.418Z,3.10
2017-09-05T06:09:20.966Z,3.53
2017-09-05T06:15:00.099Z,3.33
2017-09-05T06:17:28.494Z,3.30
2017-09-05T06:19:57.889Z,3.77
2017-09-05T06:22:26.308Z,4.17
2017-09-05T06:24:55.040Z,3.70
2017-09-05T06:27:23.528Z,3.50
2017-09-05T06:29:51.936Z,3.27
2017-09-05T06:32:20.524Z,3.70
2017-09-05T06:34:48.836Z,3.87
2017-09-05T06:37:17.136Z,3.20
2017-09-05T06:39:45.480Z,3.40
2017-09-05T06:42:13.951Z,3.47
2017-09-05T06:44:42.772Z,2.70
2017-09-05T06:47:11.094Z,2.90
2017-09-05T06:49:39.730Z,2.80
2017-09-05T06:52:08.056Z,3.97
2017-09-05T06:54:36.467Z,3.47
2017-09-05T06:57:05.618Z,3.17
2017-09-05T06:59:34.409Z,3.67
2017-09-05T07:02:02.764Z,2.90
2017-09-05T07:04:31.140Z,3.33
2017-09-05T07:06:59.509Z,3.07
2017-09-05T07:09:27.881Z,3.33
2017-09-05T07:11:56.185Z,3.80
2017-09-05T07:14:25.728Z,2.80
2017-09-05T07:16:54.040Z,3.80
2017-09-05T07:19:23.118Z,3.57
2017-09-05T07:21:52.316Z,4.07
2017-09-05T07:24:21.226Z,3.40
2017-09-05T07:26:49.649Z,3.57
2017-09-05T07:29:17.964Z,4.00
2017-09-05T07:31:46.276Z,4.20
2017-09-05T07:34:14.591Z,4.10
2017-09-05T07:36:43.525Z,4.23
2017-09-05T07:39:11.850Z,3.77
2017-09-05T07:41:41.508Z,4.30
2017-09-05T07:44:09.862Z,4.33
2017-09-05T07:46:38.176Z,3.67
2017-09-05T07:49:06.512Z,5.30
2017-09-05T07:51:35.125Z,5.43
2017-09-05T07:54:03.960Z,5.10
2017-09-05T07:56:32.292Z,4.93
2017-09-05T07:59:00.775Z,6.10
2017-09-05T08:01:29.129Z,7.47
2017-09-05T08:03:57.605Z,9.43
2017-09-05T08:06:27.951Z,7.27
2017-09-05T08:08:56.322Z,6.23
2017-09-05T08:11:24.747Z,5.80
2017-09-05T08:13:53.339Z,6.53
2017-09-05T08:16:22.047Z,7.30
2017-09-05T08:18:55.555Z,6.30
2017-09-05T08:21:23.881Z,5.40
2017-09-05T08:23:52.294Z,5.77
2017-09-05T08:26:20.688Z,5.77
2017-09-05T08:28:49.877Z,4.83
2017-09-05T08:31:18.816Z,6.13
2017-09-05T08:33:47.180Z,4.60
2017-09-05T08:36:15.482Z,5.40
2017-09-05T08:38:43.795Z,5.30
2017-09-05T08:41:12.128Z,5.60
2017-09-05T08:43:40.668Z,6.50
2017-09-05T08:46:09.019Z,5.40
2017-09-05T08:48:37.415Z,4.57
2017-09-05T08:51:05.752Z,5.23
2017-09-05T08:53:34.084Z,5.30
2017-09-05T08:56:02.388Z,6.20
2017-09-05T08:58:30.697Z,5.07
2017-09-05T09:00:59.040Z,4.80
2017-09-05T09:03:27.357Z,5.97
2017-09-05T09:05:55.705Z,5.13
2017-09-05T09:08:24.342Z,5.47
2017-09-05T09:10:52.763Z,6.37
2017-09-05T09:13:21.185Z,4.90
2017-09-05T09:15:49.483Z,5.03
2017-09-05T09:18:17.821Z,6.27
2017-09-05T09:20:46.125Z,6.40
2017-09-05T09:23:14.416Z,5.37
2017-09-05T09:25:43.575Z,6.67
2017-09-05T09:28:11.892Z,6.00
2017-09-05T09:30:40.395Z,6.40
2017-09-05T09:33:08.706Z,5.03
2017-09-05T09:35:37.084Z,4.80
2017-09-05T09:38:05.368Z,5.50
2017-09-05T09:40:33.673Z,5.10
2017-09-05T09:43:01.981Z,5.50
2017-09-05T09:45:30.498Z,6.00
2017-09-05T09:47:59.127Z,4.53
2017-09-05T09:50:27.571Z,5.47
2017-09-05T09:52:55.983Z,4.70
2017-09-05T09:55:24.299Z,4.73
2017-09-05T09:57:52.594Z,5.10
2017-09-05T10:00:20.976Z,5.30
2017-09-05T10:02:49.725Z,5.28
2017-09-05T10:05:18.038Z,4.40
2017-09-05T10:07:46.336Z,5.17
2017-09-05T10:10:15.516Z,4.90
2017-09-05T10:12:43.951Z,5.17
2017-09-05T10:15:12.700Z,6.00
2017-09-05T10:17:41.021Z,4.70
2017-09-05T10:20:09.329Z,3.93
2017-09-05T10:22:38.556Z,4.80
2017-09-05T10:25:06.893Z,4.50
2017-09-05T10:27:35.291Z,4.07
2017-09-05T10:30:04.444Z,4.60
2017-09-05T10:32:33.441Z,4.23
2017-09-05T10:35:01.866Z,3.90
2017-09-05T10:37:30.873Z,4.00
2017-09-05T10:39:59.344Z,4.27
2017-09-05T10:42:27.677Z,4.37
2017-09-05T10:44:56.000Z,4.87
2017-09-05T10:47:24.998Z,4.40
2017-09-05T10:49:54.976Z,3.73
2017-09-05T10:52:23.312Z,5.10
2017-09-05T10:54:51.712Z,3.70
2017-09-05T10:57:21.009Z,4.33
2017-09-05T10:59:49.319Z,4.13
2017-09-05T11:02:17.613Z,4.47
2017-09-05T11:04:46.273Z,4.03
2017-09-05T11:07:14.895Z,3.57
2017-09-05T11:09:43.720Z,4.27
2017-09-05T11:12:12.045Z,4.87
2017-09-05T11:14:40.527Z,4.27
2017-09-05T11:17:09.711Z,4.10
2017-09-05T11:19:38.006Z,4.20
2017-09-05T11:22:06.465Z,3.30
2017-09-05T11:24:35.028Z,5.50
2017-09-05T11:27:03.353Z,4.30
2017-09-05T11:29:31.891Z,3.70
2017-09-05T11:32:01.836Z,3.80
2017-09-05T11:34:30.301Z,3.17
2017-09-05T11:36:59.742Z,6.07
2017-09-05T11:39:28.066Z,4.33
2017-09-05T11:41:56.392Z,4.40
2017-09-05T11:44:24.736Z,4.17
2017-09-05T11:46:53.097Z,3.90
2017-09-05T11:49:21.895Z,4.90
2017-09-05T11:51:50.811Z,3.20
2017-09-05T11:54:19.116Z,4.23
2017-09-05T11:56:47.444Z,2.90
2017-09-05T11:59:15.872Z,3.40
2017-09-05T12:01:44.340Z,3.50
2017-09-05T12:04:14.013Z,3.83
2017-09-05T12:06:43.044Z,3.40
2017-09-05T12:09:11.945Z,4.33
2017-09-05T12:11:40.511Z,4.47
2017-09-05T12:14:09.067Z,3.83
2017-09-05T12:16:37.606Z,3.10
2017-09-05T12:19:06.041Z,3.97
2017-09-05T12:21:34.385Z,3.03
2017-09-05T12:24:03.391Z,3.70
2017-09-05T12:26:31.846Z,3.87
2017-09-05T12:29:00.152Z,3.77
2017-09-05T12:31:28.533Z,5.00
2017-09-05T12:33:56.855Z,4.00
2017-09-05T12:36:25.538Z,4.53
2017-09-05T12:38:53.995Z,4.27
2017-09-05T12:41:22.389Z,4.03
2017-09-05T12:43:51.376Z,5.03
2017-09-05T12:46:20.835Z,5.00
2017-09-05T12:48:49.967Z,4.20
2017-09-05T12:51:18.304Z,3.40
2017-09-05T12:53:46.613Z,4.03
2017-09-05T12:56:15.053Z,3.60
2017-09-05T12:58:43.889Z,4.20
2017-09-05T13:01:12.244Z,3.53
2017-09-05T13:03:40.719Z,3.73
2017-09-05T13:06:09.637Z,3.40
2017-09-05T13:08:37.943Z,3.63
2017-09-05T13:11:06.501Z,3.23
2017-09-05T13:13:35.851Z,3.30
2017-09-05T13:16:04.700Z,4.00
2017-09-05T13:18:33.250Z,3.80
2017-09-05T13:21:01.891Z,3.97
2017-09-05T13:23:30.324Z,5.43
2017-09-05T13:25:59.117Z,4.37
2017-09-05T13:28:27.456Z,4.07
2017-09-05T13:30:55.790Z,4.93
2017-09-05T13:33:24.986Z,4.87
2017-09-05T13:35:54.163Z,4.77
2017-09-05T13:38:22.478Z,4.37
2017-09-05T13:40:51.295Z,3.20
2017-09-05T13:43:19.903Z,3.53
2017-09-05T13:45:48.279Z,4.07
2017-09-05T13:48:16.612Z,3.30
2017-09-05T13:50:44.921Z,2.83
2017-09-05T13:53:13.281Z,3.73
2017-09-05T13:55:42.069Z,3.07
2017-09-05T13:58:10.388Z,5.87
2017-09-05T14:00:38.711Z,3.83
2017-09-05T14:03:07.251Z,4.00
2017-09-05T14:05:35.957Z,6.70
2017-09-05T14:08:04.254Z,6.27
2017-09-05T14:10:32.566Z,4.53
2017-09-05T14:13:01.340Z,6.30
2017-09-05T14:15:29.712Z,4.20
2017-09-05T14:17:58.046Z,3.57
2017-09-05T14:20:26.371Z,3.23
2017-09-05T14:22:55.394Z,3.80
2017-09-05T14:25:24.181Z,3.60
2017-09-05T14:27:52.487Z,3.10
2017-09-05T14:30:20.823Z,3.83
2017-09-05T14:32:49.160Z,3.90
2017-09-05T14:35:17.476Z,3.90
2017-09-05T14:37:45.883Z,3.43
2017-09-05T14:40:14.220Z,3.90
2017-09-05T14:42:43.272Z,3.77
2017-09-05T14:45:11.570Z,3.60
2017-09-05T14:47:40.008Z,4.07
2017-09-05T14:50:08.320Z,3.00
2017-09-05T14:52:36.638Z,4.60
2017-09-05T14:55:04.946Z,4.00
2017-09-05T14:57:33.288Z,3.63
2017-09-05T15:00:01.585Z,3.00
2017-09-05T15:02:30.036Z,3.93
2017-09-05T15:04:58.523Z,5.33
2017-09-05T15:07:26.864Z,3.57
2017-09-05T15:09:55.415Z,4.40
2017-09-05T15:12:23.816Z,4.13
2017-09-05T15:14:52.511Z,3.80
2017-09-05T15:17:21.221Z,3.50
2017-09-05T15:19:49.892Z,3.33
2017-09-05T15:22:18.254Z,4.83
2017-09-05T15:24:46.562Z,3.97
2017-09-05T15:27:14.919Z,3.30
2017-09-05T15:29:43.243Z,4.13
2017-09-05T15:32:13.366Z,3.90
2017-09-05T15:34:42.612Z,4.10
2017-09-05T15:37:10.939Z,4.07
2017-09-05T15:39:39.523Z,3.83
2017-09-05T15:42:07.949Z,3.60
2017-09-05T15:44:36.262Z,4.07
2017-09-05T15:47:04.603Z,3.40
2017-09-05T15:49:32.927Z,3.70
2017-09-05T15:52:01.227Z,3.90
2017-09-05T15:54:30.597Z,3.43
2017-09-05T15:56:58.928Z,4.60
2017-09-05T15:59:27.327Z,3.63
2017-09-05T16:01:55.979Z,3.40
2017-09-05T16:04:24.302Z,4.33
2017-09-05T16:06:52.898Z,4.67
2017-09-05T16:09:21.660Z,3.10
2017-09-05T16:11:50.021Z,3.90
2017-09-05T16:14:18.402Z,3.47
2017-09-05T16:16:46.731Z,3.60
2017-09-05T16:19:15.500Z,4.97
2017-09-05T16:21:44.055Z,4.47
2017-09-05T16:24:12.565Z,3.90
2017-09-05T16:26:40.864Z,3.57
2017-09-05T16:29:09.180Z,3.23
2017-09-05T16:31:37.537Z,3.50
2017-09-05T16:34:06.872Z,3.73
2017-09-05T16:36:35.892Z,3.53
2017-09-05T16:39:05.776Z,3.30
2017-09-05T16:41:34.195Z,3.70
2017-09-05T16:44:02.708Z,4.60
2017-09-05T16:46:31.016Z,3.67
2017-09-05T16:48:59.476Z,3.20
2017-09-05T16:51:27.766Z,3.70
2017-09-05T16:53:56.484Z,2.90
2017-09-05T16:56:24.816Z,3.20
2017-09-05T16:58:53.238Z,3.73
2017-09-05T17:01:21.534Z,3.93
2017-09-05T17:03:49.839Z,4.00
2017-09-05T17:06:18.298Z,4.50
2017-09-05T17:08:46.608Z,3.20
2017-09-05T17:11:14.922Z,3.93
2017-09-05T17:13:43.543Z,3.87
2017-09-05T17:16:12.304Z,4.00
2017-09-05T17:18:40.747Z,3.77
2017-09-05T17:21:09.052Z,3.50
2017-09-05T17:23:38.246Z,3.53
2017-09-05T17:26:06.565Z,3.27
2017-09-05T17:28:34.864Z,3.57
2017-09-05T17:31:03.852Z,4.30
2017-09-05T17:33:32.215Z,3.57
2017-09-05T17:36:00.557Z,3.77
2017-09-05T17:38:28.878Z,6.10
2017-09-05T17:40:57.191Z,4.40
2017-09-05T17:43:26.243Z,7.00
2017-09-05T17:45:54.562Z,6.33
2017-09-05T17:48:22.997Z,4.47
2017-09-05T17:50:51.711Z,4.77
2017-09-05T17:53:20.067Z,4.40
2017-09-05T17:55:48.399Z,4.80
2017-09-05T17:58:16.687Z,5.60
2017-09-05T18:00:46.011Z,5.67
2017-09-05T18:03:14.662Z,5.10
2017-09-05T18:05:42.984Z,5.20
2017-09-05T18:08:11.407Z,5.00
2017-09-05T18:10:39.724Z,5.10
2017-09-05T18:13:08.057Z,5.77
2017-09-05T18:15:36.477Z,6.30
2017-09-05T18:18:04.965Z,5.97
2017-09-05T18:20:33.291Z,6.50
2017-09-05T18:23:02.421Z,7.33
2017-09-05T18:25:31.272Z,5.33
2017-09-05T18:27:59.821Z,6.00
2017-09-05T18:30:28.159Z,6.93
2017-09-05T18:32:56.473Z,7.30
2017-09-05T18:35:24.849Z,6.20
2017-09-05T18:37:53.654Z,6.10
2017-09-05T18:40:21.941Z,6.07
2017-09-05T18:42:50.502Z,7.70
2017-09-05T18:45:18.833Z,6.20
2017-09-05T18:47:47.177Z,6.87
2017-09-05T18:50:15.525Z,7.47
2017-09-05T18:52:43.891Z,5.67
2017-09-05T18:55:12.189Z,7.37
2017-09-05T18:57:40.504Z,6.63
2017-09-05T19:00:09.664Z,9.20
2017-09-05T19:02:37.976Z,7.30
2017-09-05T19:05:06.285Z,8.57
2017-09-05T19:07:34.604Z,7.30
2017-09-05T19:10:02.924Z,7.40
2017-09-05T19:12:31.280Z,7.40
2017-09-05T19:14:59.652Z,7.00
2017-09-05T19:17:27.963Z,6.33
2017-09-05T19:19:56.305Z,7.47
2017-09-05T19:22:24.941Z,7.77
2017-09-05T19:24:53.244Z,6.60
2017-09-05T19:27:21.604Z,7.47
2017-09-05T19:29:49.924Z,6.17
2017-09-05T19:32:18.233Z,8.80
2017-09-05T19:34:46.660Z,9.13
2017-09-05T19:37:14.983Z,8.57
2017-09-05T19:39:43.516Z,9.10
2017-09-05T19:42:11.843Z,8.60
2017-09-05T19:44:40.155Z,9.80
2017-09-05T19:47:08.778Z,7.50
2017-09-05T19:49:37.119Z,6.77
2017-09-05T19:52:05.420Z,6.27
2017-09-05T19:54:33.734Z,6.70
2017-09-05T19:57:02.040Z,6.80
2017-09-05T19:59:30.501Z,7.90
2017-09-05T20:01:58.800Z,7.70
2017-09-05T20:04:27.168Z,7.87
2017-09-05T20:06:55.907Z,8.87
2017-09-05T20:09:24.224Z,8.20
2017-09-05T20:11:52.670Z,7.27
2017-09-05T20:14:21.289Z,9.30
2017-09-05T20:16:55.655Z,6.83
2017-09-05T20:19:29.996Z,7.03
2017-09-05T20:22:04.378Z,6.30
2017-09-05T20:24:36.473Z,7.70
2017-09-05T20:27:05.130Z,6.47
2017-09-05T20:29:37.709Z,6.43
2017-09-05T20:32:06.283Z,6.20
2017-09-05T20:34:37.747Z,6.30
2017-09-05T20:37:07.140Z,6.30
2017-09-05T20:39:36.627Z,6.53
2017-09-05T20:42:10.857Z,6.37
2017-09-05T20:44:45.065Z,6.40
2017-09-05T20:47:19.241Z,7.10
2017-09-05T20:49:47.965Z,6.40
2017-09-05T20:52:16.456Z,6.87
2017-09-05T20:54:44.782Z,6.10
2017-09-05T20:57:13.139Z,6.97
2017-09-05T20:59:41.517Z,6.67
2017-09-05T21:02:09.870Z,6.90
2017-09-05T21:04:38.186Z,6.60
2017-09-05T21:07:06.501Z,7.53
2017-09-05T21:09:34.919Z,7.30
2017-09-05T21:12:03.249Z,6.30
2017-09-05T21:14:31.592Z,7.80
2017-09-05T21:17:00.020Z,6.47
2017-09-05T21:19:28.339Z,7.10
2017-09-05T21:21:56.647Z,6.13
2017-09-05T21:24:25.158Z,6.07
2017-09-05T21:26:53.513Z,6.60
2017-09-05T21:29:21.919Z,6.97
2017-09-05T21:31:50.232Z,6.60
2017-09-05T21:34:18.605Z,7.30
2017-09-05T21:36:47.059Z,6.73
2017-09-05T21:39:15.385Z,6.50
2017-09-05T21:41:43.720Z,6.23
2017-09-05T21:44:12.076Z,5.47
2017-09-05T21:46:40.613Z,6.33
2017-09-05T21:49:08.923Z,5.87
2017-09-05T21:51:37.309Z,5.13
2017-09-05T21:54:05.757Z,5.80
2017-09-05T21:56:36.957Z,4.80
2017-09-05T21:59:05.524Z,4.67
2017-09-05T22:01:36.595Z,5.47
2017-09-05T22:04:04.920Z,5.87
2017-09-05T22:06:33.333Z,4.97
2017-09-05T22:09:01.673Z,5.50
2017-09-05T22:11:29.977Z,4.70
2017-09-05T22:14:03.761Z,4.70
2017-09-05T22:16:37.784Z,4.10
2017-09-05T22:19:11.589Z,4.50
2017-09-05T22:21:40.051Z,4.50
2017-09-05T22:24:08.635Z,4.63
2017-09-05T22:29:38.444Z,4.90
2017-09-05T22:32:06.811Z,5.03
2017-09-05T22:34:35.129Z,4.60
2017-09-05T22:37:03.645Z,4.80
2017-09-05T22:39:31.952Z,4.60
2017-09-05T22:42:00.398Z,4.80
2017-09-05T22:44:28.729Z,3.97
2017-09-05T22:46:57.052Z,4.73
2017-09-05T22:49:25.399Z,4.77
2017-09-05T22:51:54.180Z,5.60
2017-09-05T22:54:22.559Z,4.20
2017-09-05T22:56:51.019Z,5.40
2017-09-05T22:59:19.545Z,4.87
2017-09-05T23:01:47.876Z,4.33
2017-09-05T23:04:16.282Z,4.30
2017-09-05T23:06:44.580Z,3.73
2017-09-05T23:09:12.901Z,3.63
2017-09-05T23:11:41.514Z,4.10
2017-09-05T23:14:10.137Z,4.33
2017-09-05T23:16:38.786Z,5.03
2017-09-05T23:19:07.153Z,4.10
2017-09-05T23:21:35.848Z,5.00
2017-09-05T23:24:04.132Z,4.27
2017-09-05T23:26:32.634Z,3.90
2017-09-05T23:29:01.375Z,4.57
2017-09-05T23:31:29.677Z,4.37
2017-09-05T23:33:58.161Z,4.10
2017-09-05T23:36:26.835Z,3.90
2017-09-05T23:38:55.360Z,4.07
2017-09-05T23:41:24.190Z,4.40
2017-09-05T23:43:52.946Z,4.30
2017-09-05T23:46:21.612Z,4.80
2017-09-05T23:48:50.476Z,4.47
2017-09-05T23:51:19.171Z,3.83
2017-09-05T23:53:47.783Z,4.40
2017-09-05T23:56:16.289Z,4.07
2017-09-05T23:58:45.576Z,4.40
